sensor_id;sensor_type;location;lat;lon;timestamp;temperature;humidity
62904;DHT22;49000;50.698;13.322;2023-04-25T00:00:58;6.00;99.90
62904;DHT22;49000;50.698;13.322;2023-04-25T00:03:23;5.60;99.90
62904;DHT22;49000;50.698;13.322;2023-04-25T00:05:50;5.40;99.90
62904;DHT22;49000;50.698;13.322;2023-04-25T00:08:17;5.60;99.90
62904;DHT22;49000;50.698;13.322;2023-04-25T00:10:42;5.80;99.90
62904;DHT22;49000;50.698;13.322;2023-04-25T00:13:08;5.90;99.90
62904;DHT22;49000;50.698;13.322;2023-04-25T00:15:34;5.50;99.90
62904;DHT22;49000;50.698;13.322;2023-04-25T00:18:01;5.70;99.90
62904;DHT22;49000;50.698;13.322;2023-04-25T00:20:26;5.40;99.90
62904;DHT22;49000;50.698;13.322;2023-04-25T00:22:52;5.20;99.90
62904;DHT22;49000;50.698;13.322;2023-04-25T00:25:18;5.40;99.90
62904;DHT22;49000;50.698;13.322;2023-04-25T00:27:45;5.60;99.90
62904;DHT22;49000;50.698;13.322;2023-04-25T00:30:11;5.00;99.90
62904;DHT22;49000;50.698;13.322;2023-04-25T00:32:36;5.60;99.90
62904;DHT22;49000;50.698;13.322;2023-04-25T00:35:02;5.60;99.90
62904;DHT22;49000;50.698;13.322;2023-04-25T00:37:27;5.20;99.90
62904;DHT22;49000;50.698;13.322;2023-04-25T00:39:53;5.10;99.90
62904;DHT22;49000;50.698;13.322;2023-04-25T00:42:21;5.10;99.90
62904;DHT22;49000;50.698;13.322;2023-04-25T00:44:47;5.00;99.90
62904;DHT22;49000;50.698;13.322;2023-04-25T00:47:13;5.20;99.90
62904;DHT22;49000;50.698;13.322;2023-04-25T00:49:38;5.10;99.90
62904;DHT22;49000;50.698;13.322;2023-04-25T00:52:04;4.80;99.90
62904;DHT22;49000;50.698;13.322;2023-04-25T00:54:30;5.10;99.90
62904;DHT22;49000;50.698;13.322;2023-04-25T00:56:56;5.10;99.90
62904;DHT22;49000;50.698;13.322;2023-04-25T00:59:22;4.90;99.90
62904;DHT22;49000;50.698;13.322;2023-04-25T01:01:47;4.90;99.90
62904;DHT22;49000;50.698;13.322;2023-04-25T01:04:13;4.50;99.90
62904;DHT22;49000;50.698;13.322;2023-04-25T01:06:39;4.90;99.90
62904;DHT22;49000;50.698;13.322;2023-04-25T01:09:05;4.60;99.90
62904;DHT22;49000;50.698;13.322;2023-04-25T01:11:30;4.70;99.90
62904;DHT22;49000;50.698;13.322;2023-04-25T01:13:56;4.10;99.90
62904;DHT22;49000;50.698;13.322;2023-04-25T01:16:22;4.30;99.90
62904;DHT22;49000;50.698;13.322;2023-04-25T01:18:49;4.40;99.90
62904;DHT22;49000;50.698;13.322;2023-04-25T01:21:15;4.50;99.90
62904;DHT22;49000;50.698;13.322;2023-04-25T01:23:42;4.40;99.90
62904;DHT22;49000;50.698;13.322;2023-04-25T01:26:11;4.30;99.90
62904;DHT22;49000;50.698;13.322;2023-04-25T01:28:37;4.30;99.90
62904;DHT22;49000;50.698;13.322;2023-04-25T01:31:03;4.30;99.90
62904;DHT22;49000;50.698;13.322;2023-04-25T01:33:29;4.20;99.90
62904;DHT22;49000;50.698;13.322;2023-04-25T01:35:55;3.70;99.90
62904;DHT22;49000;50.698;13.322;2023-04-25T01:38:20;3.80;99.90
62904;DHT22;49000;50.698;13.322;2023-04-25T01:40:46;4.20;99.90
62904;DHT22;49000;50.698;13.322;2023-04-25T01:43:14;4.00;99.90
62904;DHT22;49000;50.698;13.322;2023-04-25T01:45:41;3.70;99.90
62904;DHT22;49000;50.698;13.322;2023-04-25T01:48:11;3.40;99.90
62904;DHT22;49000;50.698;13.322;2023-04-25T01:50:38;3.50;99.90
62904;DHT22;49000;50.698;13.322;2023-04-25T01:53:04;3.80;99.90
62904;DHT22;49000;50.698;13.322;2023-04-25T01:55:30;3.50;99.90
62904;DHT22;49000;50.698;13.322;2023-04-25T01:57:56;3.90;99.90
62904;DHT22;49000;50.698;13.322;2023-04-25T02:00:21;3.70;99.90
62904;DHT22;49000;50.698;13.322;2023-04-25T02:02:47;3.40;99.90
62904;DHT22;49000;50.698;13.322;2023-04-25T02:05:13;3.80;99.90
62904;DHT22;49000;50.698;13.322;2023-04-25T02:07:39;3.80;99.90
62904;DHT22;49000;50.698;13.322;2023-04-25T02:10:05;3.80;99.90
62904;DHT22;49000;50.698;13.322;2023-04-25T02:12:31;4.20;99.90
62904;DHT22;49000;50.698;13.322;2023-04-25T02:14:57;3.70;99.90
62904;DHT22;49000;50.698;13.322;2023-04-25T02:17:22;3.70;99.90
62904;DHT22;49000;50.698;13.322;2023-04-25T02:19:48;4.10;99.90
62904;DHT22;49000;50.698;13.322;2023-04-25T02:22:13;4.10;99.90
62904;DHT22;49000;50.698;13.322;2023-04-25T02:24:39;4.10;99.90
62904;DHT22;49000;50.698;13.322;2023-04-25T02:27:05;4.10;99.90
62904;DHT22;49000;50.698;13.322;2023-04-25T02:29:31;4.30;99.90
62904;DHT22;49000;50.698;13.322;2023-04-25T02:31:56;3.80;99.90
62904;DHT22;49000;50.698;13.322;2023-04-25T02:34:22;4.30;99.90
62904;DHT22;49000;50.698;13.322;2023-04-25T02:36:48;4.30;99.90
62904;DHT22;49000;50.698;13.322;2023-04-25T02:39:16;4.40;99.90
62904;DHT22;49000;50.698;13.322;2023-04-25T02:41:41;4.10;99.90
62904;DHT22;49000;50.698;13.322;2023-04-25T02:44:07;4.60;99.90
62904;DHT22;49000;50.698;13.322;2023-04-25T02:46:32;4.70;99.90
62904;DHT22;49000;50.698;13.322;2023-04-25T02:48:58;4.60;99.90
62904;DHT22;49000;50.698;13.322;2023-04-25T02:51:23;4.30;99.90
62904;DHT22;49000;50.698;13.322;2023-04-25T02:53:49;4.80;99.90
62904;DHT22;49000;50.698;13.322;2023-04-25T02:56:14;4.40;99.90
62904;DHT22;49000;50.698;13.322;2023-04-25T02:58:40;4.90;99.90
62904;DHT22;49000;50.698;13.322;2023-04-25T03:01:05;4.90;99.90
62904;DHT22;49000;50.698;13.322;2023-04-25T03:03:31;4.50;99.90
62904;DHT22;49000;50.698;13.322;2023-04-25T03:05:56;5.00;99.90
62904;DHT22;49000;50.698;13.322;2023-04-25T03:08:21;4.70;99.90
62904;DHT22;49000;50.698;13.322;2023-04-25T03:10:48;4.90;99.90
62904;DHT22;49000;50.698;13.322;2023-04-25T03:13:15;5.10;99.90
62904;DHT22;49000;50.698;13.322;2023-04-25T03:15:40;4.60;99.90
62904;DHT22;49000;50.698;13.322;2023-04-25T03:18:06;4.90;99.90
62904;DHT22;49000;50.698;13.322;2023-04-25T03:20:31;4.80;99.90
62904;DHT22;49000;50.698;13.322;2023-04-25T03:22:57;4.90;99.90
62904;DHT22;49000;50.698;13.322;2023-04-25T03:25:22;4.80;99.90
62904;DHT22;49000;50.698;13.322;2023-04-25T03:27:48;4.90;99.90
62904;DHT22;49000;50.698;13.322;2023-04-25T03:30:13;4.80;99.90
62904;DHT22;49000;50.698;13.322;2023-04-25T03:32:39;5.20;99.90
62904;DHT22;49000;50.698;13.322;2023-04-25T03:35:05;5.30;99.90
62904;DHT22;49000;50.698;13.322;2023-04-25T03:37:30;5.20;99.90
62904;DHT22;49000;50.698;13.322;2023-04-25T03:39:56;5.10;99.90
62904;DHT22;49000;50.698;13.322;2023-04-25T03:42:21;5.50;99.90
62904;DHT22;49000;50.698;13.322;2023-04-25T03:44:48;5.30;99.90
62904;DHT22;49000;50.698;13.322;2023-04-25T03:47:14;5.00;99.90
62904;DHT22;49000;50.698;13.322;2023-04-25T03:49:39;4.90;99.90
62904;DHT22;49000;50.698;13.322;2023-04-25T03:52:05;5.30;99.90
62904;DHT22;49000;50.698;13.322;2023-04-25T03:54:30;5.10;99.90
62904;DHT22;49000;50.698;13.322;2023-04-25T03:56:56;5.10;99.90
62904;DHT22;49000;50.698;13.322;2023-04-25T03:59:21;5.40;99.90
62904;DHT22;49000;50.698;13.322;2023-04-25T04:01:47;5.30;99.90
62904;DHT22;49000;50.698;13.322;2023-04-25T04:04:12;5.50;99.90
62904;DHT22;49000;50.698;13.322;2023-04-25T04:06:38;5.50;99.90
62904;DHT22;49000;50.698;13.322;2023-04-25T04:09:03;5.60;99.90
62904;DHT22;49000;50.698;13.322;2023-04-25T04:11:29;5.50;99.90
62904;DHT22;49000;50.698;13.322;2023-04-25T04:13:54;5.60;99.90
62904;DHT22;49000;50.698;13.322;2023-04-25T04:16:20;5.70;99.90
62904;DHT22;49000;50.698;13.322;2023-04-25T04:18:45;5.50;99.90
62904;DHT22;49000;50.698;13.322;2023-04-25T04:21:11;5.80;99.90
62904;DHT22;49000;50.698;13.322;2023-04-25T04:23:36;5.40;99.90
62904;DHT22;49000;50.698;13.322;2023-04-25T04:26:02;5.80;99.90
62904;DHT22;49000;50.698;13.322;2023-04-25T04:28:28;5.70;99.90
62904;DHT22;49000;50.698;13.322;2023-04-25T04:30:53;5.60;99.90
62904;DHT22;49000;50.698;13.322;2023-04-25T04:33:19;5.60;99.90
62904;DHT22;49000;50.698;13.322;2023-04-25T04:35:45;5.20;99.90
62904;DHT22;49000;50.698;13.322;2023-04-25T04:38:12;5.60;99.90
62904;DHT22;49000;50.698;13.322;2023-04-25T04:40:40;5.90;99.90
62904;DHT22;49000;50.698;13.322;2023-04-25T04:43:06;5.20;99.90
62904;DHT22;49000;50.698;13.322;2023-04-25T04:45:34;5.70;99.90
62904;DHT22;49000;50.698;13.322;2023-04-25T04:47:59;5.90;99.90
62904;DHT22;49000;50.698;13.322;2023-04-25T04:50:25;5.90;99.90
62904;DHT22;49000;50.698;13.322;2023-04-25T04:52:51;6.00;99.90
62904;DHT22;49000;50.698;13.322;2023-04-25T04:55:17;5.80;99.90
62904;DHT22;49000;50.698;13.322;2023-04-25T04:57:42;5.80;99.90
62904;DHT22;49000;50.698;13.322;2023-04-25T05:00:08;5.30;99.90
62904;DHT22;49000;50.698;13.322;2023-04-25T05:02:37;5.80;99.90
62904;DHT22;49000;50.698;13.322;2023-04-25T05:05:04;5.70;99.90
62904;DHT22;49000;50.698;13.322;2023-04-25T05:07:29;6.00;99.90
62904;DHT22;49000;50.698;13.322;2023-04-25T05:09:55;5.50;99.90
62904;DHT22;49000;50.698;13.322;2023-04-25T05:12:20;5.60;99.90
62904;DHT22;49000;50.698;13.322;2023-04-25T05:14:46;6.10;99.90
62904;DHT22;49000;50.698;13.322;2023-04-25T05:17:11;6.10;99.90
62904;DHT22;49000;50.698;13.322;2023-04-25T05:19:37;6.20;99.90
62904;DHT22;49000;50.698;13.322;2023-04-25T05:22:03;6.30;99.90
62904;DHT22;49000;50.698;13.322;2023-04-25T05:24:29;6.20;99.90
62904;DHT22;49000;50.698;13.322;2023-04-25T05:26:54;6.30;99.90
62904;DHT22;49000;50.698;13.322;2023-04-25T05:29:20;6.40;99.90
62904;DHT22;49000;50.698;13.322;2023-04-25T05:31:45;6.00;99.90
62904;DHT22;49000;50.698;13.322;2023-04-25T05:34:10;6.50;99.90
62904;DHT22;49000;50.698;13.322;2023-04-25T05:36:36;6.40;99.90
62904;DHT22;49000;50.698;13.322;2023-04-25T05:39:01;6.50;99.90
62904;DHT22;49000;50.698;13.322;2023-04-25T05:41:28;6.10;99.90
62904;DHT22;49000;50.698;13.322;2023-04-25T05:43:54;6.50;99.90
62904;DHT22;49000;50.698;13.322;2023-04-25T05:46:19;6.50;99.90
62904;DHT22;49000;50.698;13.322;2023-04-25T05:48:45;6.50;99.90
62904;DHT22;49000;50.698;13.322;2023-04-25T05:51:10;6.60;99.90
62904;DHT22;49000;50.698;13.322;2023-04-25T05:53:36;6.40;99.90
62904;DHT22;49000;50.698;13.322;2023-04-25T05:56:01;6.60;99.90
62904;DHT22;49000;50.698;13.322;2023-04-25T05:58:28;6.70;99.90
62904;DHT22;49000;50.698;13.322;2023-04-25T06:00:54;6.90;99.90
62904;DHT22;49000;50.698;13.322;2023-04-25T06:03:19;6.70;99.90
62904;DHT22;49000;50.698;13.322;2023-04-25T06:05:45;6.40;99.90
62904;DHT22;49000;50.698;13.322;2023-04-25T06:08:10;6.60;99.90
62904;DHT22;49000;50.698;13.322;2023-04-25T06:10:36;7.00;99.90
62904;DHT22;49000;50.698;13.322;2023-04-25T06:13:03;6.70;99.90
62904;DHT22;49000;50.698;13.322;2023-04-25T06:15:29;6.90;99.90
62904;DHT22;49000;50.698;13.322;2023-04-25T06:17:55;6.90;99.90
62904;DHT22;49000;50.698;13.322;2023-04-25T06:20:20;6.50;99.90
62904;DHT22;49000;50.698;13.322;2023-04-25T06:22:48;6.80;99.90
62904;DHT22;49000;50.698;13.322;2023-04-25T06:25:14;7.00;99.90
62904;DHT22;49000;50.698;13.322;2023-04-25T06:27:40;6.70;99.90
62904;DHT22;49000;50.698;13.322;2023-04-25T06:30:06;7.10;99.90
62904;DHT22;49000;50.698;13.322;2023-04-25T06:32:32;7.20;99.90
62904;DHT22;49000;50.698;13.322;2023-04-25T06:34:57;7.20;99.90
62904;DHT22;49000;50.698;13.322;2023-04-25T06:37:23;7.20;99.90
62904;DHT22;49000;50.698;13.322;2023-04-25T06:39:48;7.10;99.90
62904;DHT22;49000;50.698;13.322;2023-04-25T06:42:14;7.10;99.90
62904;DHT22;49000;50.698;13.322;2023-04-25T06:44:40;6.70;99.90
62904;DHT22;49000;50.698;13.322;2023-04-25T06:47:05;7.00;99.90
62904;DHT22;49000;50.698;13.322;2023-04-25T06:49:31;7.00;99.90
62904;DHT22;49000;50.698;13.322;2023-04-25T06:51:56;6.80;99.90
62904;DHT22;49000;50.698;13.322;2023-04-25T06:54:21;7.00;99.90
62904;DHT22;49000;50.698;13.322;2023-04-25T06:56:47;6.70;99.90
62904;DHT22;49000;50.698;13.322;2023-04-25T06:59:12;6.60;99.90
62904;DHT22;49000;50.698;13.322;2023-04-25T07:01:38;6.50;99.90
62904;DHT22;49000;50.698;13.322;2023-04-25T07:04:03;6.50;99.90
62904;DHT22;49000;50.698;13.322;2023-04-25T07:06:29;6.60;99.90
62904;DHT22;49000;50.698;13.322;2023-04-25T07:08:55;6.80;99.90
62904;DHT22;49000;50.698;13.322;2023-04-25T07:11:20;7.20;99.90
62904;DHT22;49000;50.698;13.322;2023-04-25T07:13:46;7.40;99.90
62904;DHT22;49000;50.698;13.322;2023-04-25T07:16:11;7.20;95.10
62904;DHT22;49000;50.698;13.322;2023-04-25T07:18:37;7.30;97.20
62904;DHT22;49000;50.698;13.322;2023-04-25T07:21:03;7.20;98.80
62904;DHT22;49000;50.698;13.322;2023-04-25T07:23:29;7.30;95.50
62904;DHT22;49000;50.698;13.322;2023-04-25T07:25:55;7.50;90.00
62904;DHT22;49000;50.698;13.322;2023-04-25T07:28:21;7.30;98.30
62904;DHT22;49000;50.698;13.322;2023-04-25T07:30:46;7.40;95.20
62904;DHT22;49000;50.698;13.322;2023-04-25T07:33:12;7.30;99.30
62904;DHT22;49000;50.698;13.322;2023-04-25T07:35:37;6.90;99.90
62904;DHT22;49000;50.698;13.322;2023-04-25T07:38:03;6.70;99.90
62904;DHT22;49000;50.698;13.322;2023-04-25T07:40:29;6.80;99.90
62904;DHT22;49000;50.698;13.322;2023-04-25T07:42:54;6.30;99.90
62904;DHT22;49000;50.698;13.322;2023-04-25T07:45:20;6.60;99.90
62904;DHT22;49000;50.698;13.322;2023-04-25T07:47:45;6.50;99.90
62904;DHT22;49000;50.698;13.322;2023-04-25T07:50:11;6.70;99.90
62904;DHT22;49000;50.698;13.322;2023-04-25T07:52:36;6.60;99.90
62904;DHT22;49000;50.698;13.322;2023-04-25T07:55:02;6.30;99.90
62904;DHT22;49000;50.698;13.322;2023-04-25T07:57:29;6.50;99.90
62904;DHT22;49000;50.698;13.322;2023-04-25T07:59:54;6.30;99.90
62904;DHT22;49000;50.698;13.322;2023-04-25T08:02:20;6.20;99.90
62904;DHT22;49000;50.698;13.322;2023-04-25T08:04:45;6.10;99.90
62904;DHT22;49000;50.698;13.322;2023-04-25T08:07:11;6.10;99.90
62904;DHT22;49000;50.698;13.322;2023-04-25T08:09:37;6.10;99.90
62904;DHT22;49000;50.698;13.322;2023-04-25T08:12:03;6.20;99.90
62904;DHT22;49000;50.698;13.322;2023-04-25T08:14:29;6.40;99.90
62904;DHT22;49000;50.698;13.322;2023-04-25T08:17:01;6.10;99.90
62904;DHT22;49000;50.698;13.322;2023-04-25T08:19:26;5.80;99.90
62904;DHT22;49000;50.698;13.322;2023-04-25T08:21:52;6.20;99.90
62904;DHT22;49000;50.698;13.322;2023-04-25T08:24:17;6.40;99.90
62904;DHT22;49000;50.698;13.322;2023-04-25T08:26:43;7.00;99.90
62904;DHT22;49000;50.698;13.322;2023-04-25T08:29:08;7.70;99.90
62904;DHT22;49000;50.698;13.322;2023-04-25T08:31:34;8.30;93.70
62904;DHT22;49000;50.698;13.322;2023-04-25T08:33:59;8.90;55.60
62904;DHT22;49000;50.698;13.322;2023-04-25T08:36:25;9.50;68.10
62904;DHT22;49000;50.698;13.322;2023-04-25T08:38:50;9.70;23.20
62904;DHT22;49000;50.698;13.322;2023-04-25T08:41:16;9.70;23.50
62904;DHT22;49000;50.698;13.322;2023-04-25T08:43:43;9.50;29.60
62904;DHT22;49000;50.698;13.322;2023-04-25T08:46:09;9.60;19.80
62904;DHT22;49000;50.698;13.322;2023-04-25T08:48:36;9.50;24.50
62904;DHT22;49000;50.698;13.322;2023-04-25T08:51:02;9.10;21.10
62904;DHT22;49000;50.698;13.322;2023-04-25T08:53:32;8.80;33.70
62904;DHT22;49000;50.698;13.322;2023-04-25T08:55:59;8.90;32.40
62904;DHT22;49000;50.698;13.322;2023-04-25T08:58:25;8.70;39.90
62904;DHT22;49000;50.698;13.322;2023-04-25T09:00:51;8.50;30.90
62904;DHT22;49000;50.698;13.322;2023-04-25T09:03:17;8.20;33.30
62904;DHT22;49000;50.698;13.322;2023-04-25T09:05:43;8.00;33.10
62904;DHT22;49000;50.698;13.322;2023-04-25T09:08:09;8.10;31.70
62904;DHT22;49000;50.698;13.322;2023-04-25T09:10:35;8.70;33.60
62904;DHT22;49000;50.698;13.322;2023-04-25T09:13:06;9.10;27.10
62904;DHT22;49000;50.698;13.322;2023-04-25T09:15:32;9.30;17.20
62904;DHT22;49000;50.698;13.322;2023-04-25T09:17:59;9.50;9.40
62904;DHT22;49000;50.698;13.322;2023-04-25T09:20:24;9.60;12.70
62904;DHT22;49000;50.698;13.322;2023-04-25T09:23:01;9.40;16.60
62904;DHT22;49000;50.698;13.322;2023-04-25T09:25:36;9.20;12.50
62904;DHT22;49000;50.698;13.322;2023-04-25T09:28:06;9.20;14.30
62904;DHT22;49000;50.698;13.322;2023-04-25T09:30:33;9.30;15.10
62904;DHT22;49000;50.698;13.322;2023-04-25T09:33:12;8.80;10.40
62904;DHT22;49000;50.698;13.322;2023-04-25T09:35:40;8.70;20.20
62904;DHT22;49000;50.698;13.322;2023-04-25T09:38:13;8.60;20.80
62904;DHT22;49000;50.698;13.322;2023-04-25T09:40:40;8.60;16.50
62904;DHT22;49000;50.698;13.322;2023-04-25T09:43:24;8.50;20.70
62904;DHT22;49000;50.698;13.322;2023-04-25T09:45:53;8.60;18.10
62904;DHT22;49000;50.698;13.322;2023-04-25T09:48:20;9.10;14.90
62904;DHT22;49000;50.698;13.322;2023-04-25T09:51:11;9.30;14.50
62904;DHT22;49000;50.698;13.322;2023-04-25T09:53:44;9.70;18.30
62904;DHT22;49000;50.698;13.322;2023-04-25T09:56:16;9.90;6.70
62904;DHT22;49000;50.698;13.322;2023-04-25T09:58:42;9.70;6.70
62904;DHT22;49000;50.698;13.322;2023-04-25T10:01:09;9.30;9.80
62904;DHT22;49000;50.698;13.322;2023-04-25T10:03:36;9.50;10.50
62904;DHT22;49000;50.698;13.322;2023-04-25T10:06:08;9.20;7.50
62904;DHT22;49000;50.698;13.322;2023-04-25T10:08:36;9.60;6.30
62904;DHT22;49000;50.698;13.322;2023-04-25T10:11:07;9.70;6.10
62904;DHT22;49000;50.698;13.322;2023-04-25T10:13:34;10.00;7.80
62904;DHT22;49000;50.698;13.322;2023-04-25T10:16:04;10.00;3.20
62904;DHT22;49000;50.698;13.322;2023-04-25T10:18:30;10.20;5.00
62904;DHT22;49000;50.698;13.322;2023-04-25T10:21:01;10.60;8.70
62904;DHT22;49000;50.698;13.322;2023-04-25T10:23:29;10.30;1.00
62904;DHT22;49000;50.698;13.322;2023-04-25T10:25:55;10.00;1.60
62904;DHT22;49000;50.698;13.322;2023-04-25T10:28:21;9.70;8.80
62904;DHT22;49000;50.698;13.322;2023-04-25T10:31:07;9.40;8.20
62904;DHT22;49000;50.698;13.322;2023-04-25T10:33:37;9.70;9.80
62904;DHT22;49000;50.698;13.322;2023-04-25T10:36:20;9.80;7.20
62904;DHT22;49000;50.698;13.322;2023-04-25T10:38:50;9.50;8.70
62904;DHT22;49000;50.698;13.322;2023-04-25T10:41:18;9.20;9.10
62904;DHT22;49000;50.698;13.322;2023-04-25T10:43:45;9.20;13.80
62904;DHT22;49000;50.698;13.322;2023-04-25T10:46:28;9.80;15.90
62904;DHT22;49000;50.698;13.322;2023-04-25T10:48:58;9.50;8.70
62904;DHT22;49000;50.698;13.322;2023-04-25T10:51:32;9.40;11.50
62904;DHT22;49000;50.698;13.322;2023-04-25T10:54:05;9.10;11.70
62904;DHT22;49000;50.698;13.322;2023-04-25T10:56:33;9.20;14.20
62904;DHT22;49000;50.698;13.322;2023-04-25T10:59:13;9.10;15.50
62904;DHT22;49000;50.698;13.322;2023-04-25T11:01:41;9.00;11.70
62904;DHT22;49000;50.698;13.322;2023-04-25T11:04:27;8.80;17.80
62904;DHT22;49000;50.698;13.322;2023-04-25T11:09:33;9.50;11.50
62904;DHT22;49000;50.698;13.322;2023-04-25T11:11:59;9.50;12.40
62904;DHT22;49000;50.698;13.322;2023-04-25T11:14:25;9.40;12.60
62904;DHT22;49000;50.698;13.322;2023-04-25T11:16:56;9.90;11.70
62904;DHT22;49000;50.698;13.322;2023-04-25T11:19:23;9.50;10.40
62904;DHT22;49000;50.698;13.322;2023-04-25T11:21:48;9.00;8.40
62904;DHT22;49000;50.698;13.322;2023-04-25T11:24:16;8.80;12.90
62904;DHT22;49000;50.698;13.322;2023-04-25T11:26:42;8.70;13.70
62904;DHT22;49000;50.698;13.322;2023-04-25T11:29:08;8.50;17.50
62904;DHT22;49000;50.698;13.322;2023-04-25T11:31:34;8.60;18.40
62904;DHT22;49000;50.698;13.322;2023-04-25T11:33:59;8.70;18.00
62904;DHT22;49000;50.698;13.322;2023-04-25T11:36:26;8.60;18.70
62904;DHT22;49000;50.698;13.322;2023-04-25T11:38:52;8.10;24.90
62904;DHT22;49000;50.698;13.322;2023-04-25T11:41:19;8.20;31.80
62904;DHT22;49000;50.698;13.322;2023-04-25T11:43:45;8.30;37.10
62904;DHT22;49000;50.698;13.322;2023-04-25T11:46:11;8.10;36.90
62904;DHT22;49000;50.698;13.322;2023-04-25T11:48:38;7.80;48.60
62904;DHT22;49000;50.698;13.322;2023-04-25T11:51:04;8.00;40.70
62904;DHT22;49000;50.698;13.322;2023-04-25T11:53:30;7.50;49.10
62904;DHT22;49000;50.698;13.322;2023-04-25T11:55:55;7.40;53.40
62904;DHT22;49000;50.698;13.322;2023-04-25T11:58:21;7.40;52.70
62904;DHT22;49000;50.698;13.322;2023-04-25T12:00:47;7.50;52.10
62904;DHT22;49000;50.698;13.322;2023-04-25T12:03:12;7.70;59.30
62904;DHT22;49000;50.698;13.322;2023-04-25T12:05:38;7.90;59.00
62904;DHT22;49000;50.698;13.322;2023-04-25T12:08:15;8.40;48.30
62904;DHT22;49000;50.698;13.322;2023-04-25T12:10:42;8.40;38.20
62904;DHT22;49000;50.698;13.322;2023-04-25T12:13:24;8.30;39.70
62904;DHT22;49000;50.698;13.322;2023-04-25T12:15:50;8.40;39.00
62904;DHT22;49000;50.698;13.322;2023-04-25T12:18:19;8.30;34.60
62904;DHT22;49000;50.698;13.322;2023-04-25T12:20:46;8.30;33.30
62904;DHT22;49000;50.698;13.322;2023-04-25T12:23:11;8.50;32.20
62904;DHT22;49000;50.698;13.322;2023-04-25T12:25:42;8.60;34.00
62904;DHT22;49000;50.698;13.322;2023-04-25T12:28:11;8.90;28.80
62904;DHT22;49000;50.698;13.322;2023-04-25T12:31:00;8.90;23.30
62904;DHT22;49000;50.698;13.322;2023-04-25T12:33:35;8.90;25.10
62904;DHT22;49000;50.698;13.322;2023-04-25T12:36:01;9.10;24.80
62904;DHT22;49000;50.698;13.322;2023-04-25T12:38:38;9.30;23.70
62904;DHT22;49000;50.698;13.322;2023-04-25T12:41:04;9.30;21.10
62904;DHT22;49000;50.698;13.322;2023-04-25T12:43:29;9.10;17.30
62904;DHT22;49000;50.698;13.322;2023-04-25T12:45:56;9.20;23.10
62904;DHT22;49000;50.698;13.322;2023-04-25T12:48:22;8.80;22.40
62904;DHT22;49000;50.698;13.322;2023-04-25T12:50:49;8.80;27.00
62904;DHT22;49000;50.698;13.322;2023-04-25T12:53:19;8.80;20.90
62904;DHT22;49000;50.698;13.322;2023-04-25T12:55:45;7.80;28.00
62904;DHT22;49000;50.698;13.322;2023-04-25T12:58:14;7.70;34.90
62904;DHT22;49000;50.698;13.322;2023-04-25T13:00:40;7.70;42.30
62904;DHT22;49000;50.698;13.322;2023-04-25T13:03:06;7.60;40.10
62904;DHT22;49000;50.698;13.322;2023-04-25T13:05:31;7.50;43.60
62904;DHT22;49000;50.698;13.322;2023-04-25T13:07:57;8.10;33.80
62904;DHT22;49000;50.698;13.322;2023-04-25T13:10:22;8.00;29.90
62904;DHT22;49000;50.698;13.322;2023-04-25T13:12:48;7.90;31.50
62904;DHT22;49000;50.698;13.322;2023-04-25T13:15:13;7.90;33.20
62904;DHT22;49000;50.698;13.322;2023-04-25T13:17:41;8.10;29.40
62904;DHT22;49000;50.698;13.322;2023-04-25T13:20:07;8.20;27.70
62904;DHT22;49000;50.698;13.322;2023-04-25T13:22:37;7.90;26.50
62904;DHT22;49000;50.698;13.322;2023-04-25T13:25:04;7.90;29.20
62904;DHT22;49000;50.698;13.322;2023-04-25T13:27:30;8.10;31.80
62904;DHT22;49000;50.698;13.322;2023-04-25T13:29:58;8.20;30.40
62904;DHT22;49000;50.698;13.322;2023-04-25T13:32:23;7.70;35.50
62904;DHT22;49000;50.698;13.322;2023-04-25T13:34:49;7.90;33.00
62904;DHT22;49000;50.698;13.322;2023-04-25T13:37:14;7.60;49.10
62904;DHT22;49000;50.698;13.322;2023-04-25T13:39:40;7.50;55.90
62904;DHT22;49000;50.698;13.322;2023-04-25T13:42:06;7.30;63.50
62904;DHT22;49000;50.698;13.322;2023-04-25T13:44:31;7.30;74.00
62904;DHT22;49000;50.698;13.322;2023-04-25T13:46:57;7.00;69.00
62904;DHT22;49000;50.698;13.322;2023-04-25T13:49:22;7.00;71.00
62904;DHT22;49000;50.698;13.322;2023-04-25T13:51:48;7.00;80.60
62904;DHT22;49000;50.698;13.322;2023-04-25T13:54:13;7.00;93.40
62904;DHT22;49000;50.698;13.322;2023-04-25T13:56:39;7.00;92.00
62904;DHT22;49000;50.698;13.322;2023-04-25T13:59:07;6.90;91.80
62904;DHT22;49000;50.698;13.322;2023-04-25T14:01:32;6.90;94.40
62904;DHT22;49000;50.698;13.322;2023-04-25T14:04:00;7.00;95.10
62904;DHT22;49000;50.698;13.322;2023-04-25T14:06:27;7.40;97.80
62904;DHT22;49000;50.698;13.322;2023-04-25T14:08:53;7.10;96.60
62904;DHT22;49000;50.698;13.322;2023-04-25T14:11:18;6.60;97.20
62904;DHT22;49000;50.698;13.322;2023-04-25T14:13:45;7.00;97.90
62904;DHT22;49000;50.698;13.322;2023-04-25T14:16:10;7.10;96.60
62904;DHT22;49000;50.698;13.322;2023-04-25T14:18:36;7.30;93.30
62904;DHT22;49000;50.698;13.322;2023-04-25T14:21:01;7.10;90.40
62904;DHT22;49000;50.698;13.322;2023-04-25T14:23:27;7.60;94.80
62904;DHT22;49000;50.698;13.322;2023-04-25T14:25:52;7.50;68.20
62904;DHT22;49000;50.698;13.322;2023-04-25T14:28:18;7.30;61.80
62904;DHT22;49000;50.698;13.322;2023-04-25T14:30:43;7.30;71.40
62904;DHT22;49000;50.698;13.322;2023-04-25T14:33:08;7.60;65.80
62904;DHT22;49000;50.698;13.322;2023-04-25T14:35:35;7.80;57.10
62904;DHT22;49000;50.698;13.322;2023-04-25T14:38:00;7.80;48.10
62904;DHT22;49000;50.698;13.322;2023-04-25T14:40:26;7.70;50.80
62904;DHT22;49000;50.698;13.322;2023-04-25T14:42:51;7.80;56.30
62904;DHT22;49000;50.698;13.322;2023-04-25T14:45:17;7.90;51.50
62904;DHT22;49000;50.698;13.322;2023-04-25T14:47:43;8.00;54.00
62904;DHT22;49000;50.698;13.322;2023-04-25T14:50:09;8.00;48.10
62904;DHT22;49000;50.698;13.322;2023-04-25T14:52:35;7.90;31.30
62904;DHT22;49000;50.698;13.322;2023-04-25T14:55:00;7.80;35.30
62904;DHT22;49000;50.698;13.322;2023-04-25T14:57:30;7.80;38.50
62904;DHT22;49000;50.698;13.322;2023-04-25T14:59:56;7.90;36.30
62904;DHT22;49000;50.698;13.322;2023-04-25T15:02:21;8.00;39.70
62904;DHT22;49000;50.698;13.322;2023-04-25T15:04:47;8.10;34.90
62904;DHT22;49000;50.698;13.322;2023-04-25T15:07:12;8.10;23.80
62904;DHT22;49000;50.698;13.322;2023-04-25T15:09:38;7.80;28.80
62904;DHT22;49000;50.698;13.322;2023-04-25T15:12:03;7.70;25.90
62904;DHT22;49000;50.698;13.322;2023-04-25T15:14:29;7.80;27.40
62904;DHT22;49000;50.698;13.322;2023-04-25T15:16:54;7.40;27.50
62904;DHT22;49000;50.698;13.322;2023-04-25T15:19:20;7.50;36.20
62904;DHT22;49000;50.698;13.322;2023-04-25T15:21:46;7.60;38.90
62904;DHT22;49000;50.698;13.322;2023-04-25T15:24:12;7.60;33.70
62904;DHT22;49000;50.698;13.322;2023-04-25T15:26:39;7.40;38.30
62904;DHT22;49000;50.698;13.322;2023-04-25T15:29:05;7.30;35.20
62904;DHT22;49000;50.698;13.322;2023-04-25T15:31:30;6.90;37.50